Aérodrome :
LOGIN :

S'inscrire | Disclaimer

   EN    FR    IT 

 










Légende :    VFR   VFR Marginal   IFR   IFR Intensif   IFR Très Intensif
Visi : 
Plafond : 
>= 8 km
>= 3000ft
5 à 8 km
1000 à 3000 ft
1500m à 5 km
500 à 1000 ft
800 à 1500m
200 à 500 ft
< 800m
< 200 ft
Symboles :   Orages  Brouillard  Fortes neiges  Fortes précipitations  Vent > 20 kt
SIGMETs :   Divers  Orages  Givrage  Turbulence  Onde Orograph.  Cendres Volcan.






- Altitude de l'aérodrome : 240 ft
- Code IATA : VLC


LEVC - Valencia Manises

DERNIER METAR :
  • 130700Z 26011KT 230V290 9999 BKN035 18/10 Q1008 NOSIG

METARs EXPIRÉS :
  • 130630Z 26012G25KT 230V290 9999 SCT035 17/10 Q1007 NOSIG
  • 130600Z 26013KT 9999 FEW035 17/10 Q1007 NOSIG
  • 130530Z 26013KT 9999 SCT035 17/10 Q1007 NOSIG
  • 130500Z 25017KT 9999 SCT035 17/10 Q1007 NOSIG

TAF TAF LEVC
Valide du 13 à 06h jusqu'au 14 à 06h UTC


130500Z 1306/1406 27015KT 9999 FEW030 TX20/1313Z TN13/1306Z
TEMPO 1306/1308 26018G28KT
TEMPO 1308/1317 27025G35KT
BECMG 1322/1324 25007KT



MET'MAP, la Météo Aéronautique d'un coup d'oeil ! - Copyright ORBIFLY Décembre 2007 - Disclaimer

ORBIFLY MET'MAP TEAM :

Programmation & Développement : Alexandra Zaïnal
Sur une idée originale de : Baudouin d'Aumeries
Assistance à la programmation : Marc-Olivier Méhu
Soutien technique & logistique : Manuel Goepfert

Contact : metmap@orbifly.com




SOURCES & CREDITS :

   NOAA